This is the latest recevied weather packets stored in our database for station/object UR7D-12. If no packets are shown the sender has not sent any weather packets the latest 1 day(s).
| Time | Temp. | Humidity | Pressure | Rain* | Wind** | Luminosity | Snow |
|---|---|---|---|---|---|---|---|
| 1778100197 | 17.78° C | 61% | 985.8 hPa | 0 mm | - | - | - |
| 1778099296 | 18.33° C | 60% | 985.7 hPa | 0 mm | - | - | - |
| 1778098095 | 18.33° C | 59% | 985.7 hPa | 0 mm | - | - | - |
| 1778095993 | 20° C | 54% | 985.7 hPa | 0 mm | - | - | - |
| 1778095092 | 20° C | 54% | 985.6 hPa | 0 mm | - | - | - |
| 1778094191 | 20.56° C | 52% | 985.6 hPa | 0 mm | - | - | - |
| 1778093891 | 20.56° C | 52% | 985.5 hPa | 0 mm | - | - | - |
| 1778092990 | 20.56° C | 53% | 985.5 hPa | 0 mm | - | - | - |
| 1778092690 | 20.56° C | 53% | 985.4 hPa | 0 mm | - | - | - |
| 1778092094 | 21.11° C | 52% | 985.3 hPa | 0 mm | - | - | - |
| 1778091789 | 21.11° C | 52% | 985.3 hPa | 0 mm | - | - | - |
| 1778088786 | 22.22° C | 48% | 985 hPa | 0 mm | - | - | - |
| 1778088486 | 22.22° C | 48% | 985 hPa | 0 mm | - | - | - |
| 1778087585 | 22.22° C | 47% | 985.2 hPa | 0 mm | - | - | - |
| 1778084884 | 23.89° C | 44% | 985.3 hPa | 0 mm | - | - | - |
| 1778083983 | 23.89° C | 45% | 985.2 hPa | 0 mm | - | - | - |
| 1778083683 | 23.89° C | 45% | 985.3 hPa | 0 mm | - | - | - |
| 1778082480 | 23.89° C | 45% | 985.4 hPa | 0 mm | - | - | - |
| 1778081279 | 23.89° C | 43% | 985.5 hPa | 0 mm | - | - | - |
| 1778077677 | 25° C | 42% | 985.6 hPa | 0 mm | - | - | - |
| 1778076476 | 24.44° C | 42% | 985.6 hPa | 0 mm | - | - | - |
| 1778074674 | 25° C | 43% | 985.8 hPa | 0 mm | - | - | - |
| 1778074374 | 24.44° C | 43% | 985.8 hPa | 0 mm | - | - | - |
| 1778072274 | 24.44° C | 43% | 986 hPa | 0 mm | - | - | - |
| 1778071371 | 23.89° C | 43% | 986.3 hPa | 0 mm | - | - | - |
* Rain latest hour (hover to see other rain measurements)
** Current wind speed in m/s (hover to see current wind gust speed)